Obelix — 7JAX — position and weather

sailwx.info

Track history (hours):
 
Tides and Currents Weather Stations Pressure Air Temp Water Temp Dewpoint Dewpoint Depression Visibility Wind Speed Wind Dir Waves Ship Positions

Obelix

Last reported at 2018-Feb-23 12:27 UTC. Time now 2018-Feb-23 12:46 UTC.
Position N 33°54' E 134°59'.

Length 74 m; draft 4 m.

Type: Ship. MMSI: 432528000.

Date/timePositionNaut miles runAvg speedWind from/ knotsBaromVisibWave heightAir tempDewpointWater temp
2018-Feb-23 12:27N 33°54' E 134°59'613.1
2018-Feb-23 12:00N 33°60' E 134°59'713.3
2018-Feb-23 11:30N 34°06' E 134°59'713.5
2018-Feb-23 11:01N 34°13' E 134°58'714.7
2018-Feb-23 10:30N 34°20' E 134°59'713.8
2018-Feb-23 10:00N 34°27' E 135°01'713.4
2018-Feb-23 09:31N 34°34' E 135°03'611.8
2018-Feb-23 09:00N 34°36' E 134°57'713.3
2018-Feb-23 08:30N 34°39' E 134°50'5 9.6
2018-Feb-23 08:00N 34°44' E 134°48'0 0.2
2018-Feb-23 07:30N 34°44' E 134°48'0 0.0
2018-Feb-23 06:59N 34°44' E 134°48'0 0.0
2018-Feb-23 06:30N 34°44' E 134°48'0 0.0
2018-Feb-23 05:58N 34°44' E 134°48'0 0.0
2018-Feb-23 05:26N 34°44' E 134°48'0 0.0
2018-Feb-23 04:51N 34°44' E 134°48'0 0.0
2018-Feb-23 04:20N 34°44' E 134°48'0 0.0
2018-Feb-23 03:58N 34°44' E 134°48'0 0.0
2018-Feb-23 03:10N 34°44' E 134°48'0 0.0
2018-Feb-23 02:58N 34°44' E 134°48'0 0.0
2018-Feb-23 02:29N 34°44' E 134°48'0 0.0
2018-Feb-23 02:00N 34°44' E 134°48'0 1.0
2018-Feb-23 01:30N 34°43' E 134°48'1 0.9
2018-Feb-23 00:50N 34°43' E 134°47'0 0.0
2018-Feb-22 23:20N 34°43' E 134°47'0 0.0
2018-Feb-22 22:56N 34°43' E 134°47'0 0.0
2018-Feb-22 22:14N 34°43' E 134°47'0 0.0
2018-Feb-22 21:50N 34°43' E 134°47'0 0.0
2018-Feb-22 21:26N 34°43' E 134°47'0 0.0
2018-Feb-22 20:38N 34°43' E 134°47'0 0.0
2018-Feb-22 20:26N 34°43' E 134°47'0 0.0
2018-Feb-22 19:56N 34°43' E 134°47'0 0.1
2018-Feb-22 19:26N 34°43' E 134°47'0 0.0
2018-Feb-22 18:56N 34°43' E 134°47'0 0.1
2018-Feb-22 18:26N 34°43' E 134°47'0 0.1
2018-Feb-22 17:56N 34°43' E 134°47'0 0.0
2018-Feb-22 17:26N 34°43' E 134°47'0 0.0
2018-Feb-22 16:56N 34°43' E 134°47'0 0.0
2018-Feb-22 16:26N 34°43' E 134°47'0 0.0
2018-Feb-22 15:56N 34°43' E 134°47'0 0.0
2018-Feb-22 15:26N 34°43' E 134°47'0 0.0
2018-Feb-22 14:56N 34°43' E 134°47'0 0.0
2018-Feb-22 14:26N 34°43' E 134°47'0 0.0
2018-Feb-22 13:56N 34°43' E 134°47'0 0.0
2018-Feb-22 13:26N 34°43' E 134°47'0 0.0
2018-Feb-22 12:56N 34°43' E 134°47'0 0.1
2018-Feb-22 12:20N 34°43' E 134°47'0 0.0
2018-Feb-22 11:59N 34°43' E 134°47'0 0.0
2018-Feb-22 11:26N 34°43' E 134°47'0 0.0
2018-Feb-22 10:56N 34°43' E 134°47'0 0.0
2018-Feb-22 10:23N 34°43' E 134°47'0 0.0
2018-Feb-22 09:59N 34°43' E 134°47'0 0.0
2018-Feb-22 09:26N 34°43' E 134°47'0 0.0
2018-Feb-22 08:59N 34°43' E 134°47'0 0.0
2018-Feb-22 08:26N 34°43' E 134°47'0 0.0
2018-Feb-22 07:56N 34°43' E 134°47'0 0.0
2018-Feb-22 06:50N 34°43' E 134°47'0 0.0
2018-Feb-22 06:29N 34°43' E 134°47'2 3.2
2018-Feb-22 05:58N 34°41' E 134°48'510.9
2018-Feb-22 05:31N 34°38' E 134°52'612.6
2018-Feb-22 05:00N 34°38' E 134°60'713.0
2018-Feb-22 04:30N 34°36' E 135°07'612.6
2018-Feb-22 04:00N 34°35' E 135°15'611.8
2018-Feb-22 03:30N 34°34' E 135°22'3 5.6
2018-Feb-22 03:00N 34°33' E 135°25'0 0.5
2018-Feb-22 02:28N 34°33' E 135°25'0 0.0
2018-Feb-22 01:58N 34°33' E 135°25'0 0.0
2018-Feb-22 01:28N 34°33' E 135°25'0 0.0
2018-Feb-22 00:58N 34°33' E 135°25'0 0.0
2018-Feb-22 00:28N 34°33' E 135°25'0 0.0
2018-Feb-21 23:55N 34°33' E 135°25'0 0.0
2018-Feb-21 23:25N 34°33' E 135°25'0 0.0
2018-Feb-21 22:58N 34°33' E 135°25'0 0.0
2018-Feb-21 22:28N 34°33' E 135°25'0 0.0
2018-Feb-21 21:58N 34°33' E 135°25'0 0.0
2018-Feb-21 21:28N 34°33' E 135°25'0 0.0
2018-Feb-21 20:58N 34°33' E 135°25'0 0.0
2018-Feb-21 20:25N 34°33' E 135°25'0 0.0
2018-Feb-21 19:55N 34°33' E 135°25'0 0.0
2018-Feb-21 19:28N 34°33' E 135°25'0 0.0
2018-Feb-21 18:58N 34°33' E 135°25'0 0.0
2018-Feb-21 18:28N 34°33' E 135°25'0 0.0
2018-Feb-21 17:58N 34°33' E 135°25'0 0.0
2018-Feb-21 17:28N 34°33' E 135°25'0 0.0
2018-Feb-21 16:58N 34°33' E 135°25'0 0.0
2018-Feb-21 16:28N 34°33' E 135°25'0 0.0
2018-Feb-21 15:58N 34°33' E 135°25'0 0.0
2018-Feb-21 15:28N 34°33' E 135°25'0 0.0
2018-Feb-21 14:58N 34°33' E 135°25'0 0.0
2018-Feb-21 14:28N 34°33' E 135°25'0 0.0
2018-Feb-21 13:58N 34°33' E 135°25'0 0.0
2018-Feb-21 13:28N 34°33' E 135°25'0 0.0
2018-Feb-21 12:55N 34°33' E 135°25'0 0.0
2018-Feb-21 12:25N 34°33' E 135°25'0 0.0
2018-Feb-21 11:58N 34°33' E 135°25'0 0.0
2018-Feb-21 11:28N 34°33' E 135°25'0 0.0
2018-Feb-21 10:58N 34°33' E 135°25'0 0.0
2018-Feb-21 10:25N 34°33' E 135°25'0 0.0
2018-Feb-21 09:58N 34°33' E 135°25'0 0.0
2018-Feb-21 09:28N 34°33' E 135°25'0 0.0
2018-Feb-21 08:58N 34°33' E 135°25'0 0.0
2018-Feb-21 08:28N 34°33' E 135°25'0 0.0
2018-Feb-21 07:58N 34°33' E 135°25'0 0.0
2018-Feb-21 07:28N 34°33' E 135°25'0 0.0
2018-Feb-21 06:58N 34°33' E 135°25'0 0.0
2018-Feb-21 06:25N 34°33' E 135°25'0 0.0
2018-Feb-21 05:58N 34°33' E 135°25'0 0.0
2018-Feb-21 05:28N 34°33' E 135°25'0 0.0
2018-Feb-21 04:55N 34°33' E 135°25'0 0.0
2018-Feb-21 04:25N 34°33' E 135°25'0 0.0
2018-Feb-21 03:58N 34°33' E 135°25'0 0.0
2018-Feb-21 03:25N 34°33' E 135°25'0 0.0
2018-Feb-21 02:58N 34°33' E 135°25'0 0.0
2018-Feb-21 02:28N 34°33' E 135°25'0 0.0
2018-Feb-21 01:58N 34°33' E 135°25'0 0.0
2018-Feb-21 01:28N 34°33' E 135°25'0 0.0
2018-Feb-21 00:58N 34°33' E 135°25'0 0.0
2018-Feb-21 00:25N 34°33' E 135°25'0 0.0
2018-Feb-20 23:58N 34°33' E 135°25'0 0.0
2018-Feb-20 23:29N 34°33' E 135°25'2 4.1
2018-Feb-20 23:00N 34°33' E 135°23'3 6.2
2018-Feb-20 22:28N 34°33' E 135°19'0 0.0
2018-Feb-20 21:58N 34°33' E 135°19'0 0.1
2018-Feb-20 21:30N 34°33' E 135°19'5 9.4
2018-Feb-20 21:00N 34°34' E 135°14'612.7
2018-Feb-20 20:31N 34°35' E 135°06'714.5
2018-Feb-20 20:00N 34°37' E 134°57'714.9
2018-Feb-20 19:30N 34°33' E 134°49'713.5
2018-Feb-20 19:00N 34°31' E 134°42'612.9
2018-Feb-20 18:30N 34°28' E 134°35'612.8
2018-Feb-20 18:00N 34°26' E 134°27'712.7
2018-Feb-20 17:28N 34°23' E 134°19'613.0
2018-Feb-20 16:59N 34°24' E 134°12'7611.5
2018-Feb-20 10:23N 34°06' E 132°43'512.5
2018-Feb-20 10:00N 34°04' E 132°38'612.4
2018-Feb-20 09:30N 34°02' E 132°31'611.0
2018-Feb-20 08:59N 34°04' E 132°25'612.9
2018-Feb-20 08:30N 34°09' E 132°21'713.0
2018-Feb-20 08:00N 34°16' E 132°21'510.9
2018-Feb-20 07:30N 34°20' E 132°25'5 9.2
2018-Feb-20 07:00N 34°21' E 132°31'1 1.2
2018-Feb-20 06:30N 34°22' E 132°31'0 0.1
2018-Feb-20 06:00N 34°22' E 132°31'0 0.1
2018-Feb-20 05:30N 34°22' E 132°31'0 0.0
2018-Feb-20 05:00N 34°22' E 132°31'0 0.1
2018-Feb-20 04:30N 34°22' E 132°31'0 0.0
2018-Feb-20 04:00N 34°22' E 132°31'0 0.0
2018-Feb-20 03:30N 34°22' E 132°31'0 0.0
2018-Feb-20 03:00N 34°22' E 132°31'0 0.1
2018-Feb-20 02:30N 34°22' E 132°31'0 0.1
2018-Feb-20 02:00N 34°22' E 132°31'0 0.0
2018-Feb-20 01:30N 34°22' E 132°31'0 0.0
2018-Feb-20 01:00N 34°22' E 132°31'0 0.0
2018-Feb-20 00:30N 34°22' E 132°31'0 0.1
2018-Feb-20 00:00N 34°22' E 132°31'0 0.0
2018-Feb-19 23:30N 34°22' E 132°31'3 5.9
2018-Feb-19 23:00N 34°20' E 132°28'2 2.9
2018-Feb-19 22:27N 34°19' E 132°29'0 0.0
2018-Feb-19 21:57N 34°19' E 132°29'0 0.1
2018-Feb-19 21:24N 34°19' E 132°29'0 0.0
2018-Feb-19 21:00N 34°19' E 132°29'0 0.1
2018-Feb-19 20:30N 34°19' E 132°29'0 0.0
2018-Feb-19 20:00N 34°19' E 132°29'0 0.1
2018-Feb-19 19:30N 34°19' E 132°29'0 0.1
2018-Feb-19 19:00N 34°19' E 132°29'0 0.0
2018-Feb-19 18:30N 34°19' E 132°29'0 0.0
2018-Feb-19 18:00N 34°19' E 132°29'0 0.0
2018-Feb-19 17:30N 34°19' E 132°29'0 0.1
2018-Feb-19 17:00N 34°19' E 132°29'0 0.1
2018-Feb-19 16:30N 34°19' E 132°29'0 0.0
2018-Feb-19 15:57N 34°19' E 132°29'0 0.0
2018-Feb-19 15:30N 34°19' E 132°29'0 0.0
2018-Feb-19 15:00N 34°19' E 132°29'0 0.0
2018-Feb-19 14:30N 34°19' E 132°29'0 0.0
2018-Feb-19 14:00N 34°19' E 132°29'0 0.0
2018-Feb-19 13:27N 34°19' E 132°29'0 0.0
2018-Feb-19 13:00N 34°19' E 132°29'0 0.0
2018-Feb-19 12:30N 34°19' E 132°29'0 0.1
2018-Feb-19 12:00N 34°19' E 132°29'0 0.0
2018-Feb-19 11:30N 34°19' E 132°29'0 0.0
2018-Feb-19 11:00N 34°19' E 132°29'0 0.1
2018-Feb-19 10:30N 34°19' E 132°29'0 0.0
2018-Feb-19 10:00N 34°19' E 132°29'0 0.0
2018-Feb-19 09:30N 34°19' E 132°29'0 0.0
2018-Feb-19 09:00N 34°19' E 132°29'0 0.0
2018-Feb-19 08:24N 34°19' E 132°29'2 5.1
2018-Feb-19 08:00N 34°18' E 132°27'611.4
2018-Feb-19 07:30N 34°15' E 132°21'611.6
2018-Feb-19 07:00N 34°09' E 132°22'612.5
2018-Feb-19 06:30N 34°04' E 132°26'711.1
2018-Feb-19 05:50N 34°03' E 132°34'413.2
2018-Feb-19 05:30N 34°05' E 132°39'  
Track history (hours):
 
Tides and Currents Weather Stations Pressure Air Temp Water Temp Dewpoint Dewpoint Depression Visibility Wind Speed Wind Dir Waves Ship Positions

Obelix

Last reported at 2018-Feb-23 12:27 UTC. Time now 2018-Feb-23 12:46 UTC.
Position N 33°54' E 134°59'.

Length 74 m; draft 4 m.

Type: Ship. MMSI: 432528000.

Date/timePositionNaut miles runAvg speedWind from/ knotsBaromVisibWave heightAir tempDewpointWater temp
2018-Feb-23 12:27N 33°54' E 134°59'613.1
2018-Feb-23 12:00N 33°60' E 134°59'713.3
2018-Feb-23 11:30N 34°06' E 134°59'713.5
2018-Feb-23 11:01N 34°13' E 134°58'714.7
2018-Feb-23 10:30N 34°20' E 134°59'713.8
2018-Feb-23 10:00N 34°27' E 135°01'713.4
2018-Feb-23 09:31N 34°34' E 135°03'611.8
2018-Feb-23 09:00N 34°36' E 134°57'713.3
2018-Feb-23 08:30N 34°39' E 134°50'5 9.6
2018-Feb-23 08:00N 34°44' E 134°48'0 0.2
2018-Feb-23 07:30N 34°44' E 134°48'0 0.0
2018-Feb-23 06:59N 34°44' E 134°48'0 0.0
2018-Feb-23 06:30N 34°44' E 134°48'0 0.0
2018-Feb-23 05:58N 34°44' E 134°48'0 0.0
2018-Feb-23 05:26N 34°44' E 134°48'0 0.0
2018-Feb-23 04:51N 34°44' E 134°48'0 0.0
2018-Feb-23 04:20N 34°44' E 134°48'0 0.0
2018-Feb-23 03:58N 34°44' E 134°48'0 0.0
2018-Feb-23 03:10N 34°44' E 134°48'0 0.0
2018-Feb-23 02:58N 34°44' E 134°48'0 0.0
2018-Feb-23 02:29N 34°44' E 134°48'0 0.0
2018-Feb-23 02:00N 34°44' E 134°48'0 1.0
2018-Feb-23 01:30N 34°43' E 134°48'1 0.9
2018-Feb-23 00:50N 34°43' E 134°47'0 0.0
2018-Feb-22 23:20N 34°43' E 134°47'0 0.0
2018-Feb-22 22:56N 34°43' E 134°47'0 0.0
2018-Feb-22 22:14N 34°43' E 134°47'0 0.0
2018-Feb-22 21:50N 34°43' E 134°47'0 0.0
2018-Feb-22 21:26N 34°43' E 134°47'0 0.0
2018-Feb-22 20:38N 34°43' E 134°47'0 0.0
2018-Feb-22 20:26N 34°43' E 134°47'0 0.0
2018-Feb-22 19:56N 34°43' E 134°47'0 0.1
2018-Feb-22 19:26N 34°43' E 134°47'0 0.0
2018-Feb-22 18:56N 34°43' E 134°47'0 0.1
2018-Feb-22 18:26N 34°43' E 134°47'0 0.1
2018-Feb-22 17:56N 34°43' E 134°47'0 0.0
2018-Feb-22 17:26N 34°43' E 134°47'0 0.0
2018-Feb-22 16:56N 34°43' E 134°47'0 0.0
2018-Feb-22 16:26N 34°43' E 134°47'0 0.0
2018-Feb-22 15:56N 34°43' E 134°47'0 0.0
2018-Feb-22 15:26N 34°43' E 134°47'0 0.0
2018-Feb-22 14:56N 34°43' E 134°47'0 0.0
2018-Feb-22 14:26N 34°43' E 134°47'0 0.0
2018-Feb-22 13:56N 34°43' E 134°47'0 0.0
2018-Feb-22 13:26N 34°43' E 134°47'0 0.0
2018-Feb-22 12:56N 34°43' E 134°47'0 0.1
2018-Feb-22 12:20N 34°43' E 134°47'0 0.0
2018-Feb-22 11:59N 34°43' E 134°47'0 0.0
2018-Feb-22 11:26N 34°43' E 134°47'0 0.0
2018-Feb-22 10:56N 34°43' E 134°47'0 0.0
2018-Feb-22 10:23N 34°43' E 134°47'0 0.0
2018-Feb-22 09:59N 34°43' E 134°47'0 0.0
2018-Feb-22 09:26N 34°43' E 134°47'0 0.0
2018-Feb-22 08:59N 34°43' E 134°47'0 0.0
2018-Feb-22 08:26N 34°43' E 134°47'0 0.0
2018-Feb-22 07:56N 34°43' E 134°47'0 0.0
2018-Feb-22 06:50N 34°43' E 134°47'0 0.0
2018-Feb-22 06:29N 34°43' E 134°47'2 3.2
2018-Feb-22 05:58N 34°41' E 134°48'510.9
2018-Feb-22 05:31N 34°38' E 134°52'612.6
2018-Feb-22 05:00N 34°38' E 134°60'713.0
2018-Feb-22 04:30N 34°36' E 135°07'612.6
2018-Feb-22 04:00N 34°35' E 135°15'611.8
2018-Feb-22 03:30N 34°34' E 135°22'3 5.6
2018-Feb-22 03:00N 34°33' E 135°25'0 0.5
2018-Feb-22 02:28N 34°33' E 135°25'0 0.0
2018-Feb-22 01:58N 34°33' E 135°25'0 0.0
2018-Feb-22 01:28N 34°33' E 135°25'0 0.0
2018-Feb-22 00:58N 34°33' E 135°25'0 0.0
2018-Feb-22 00:28N 34°33' E 135°25'0 0.0
2018-Feb-21 23:55N 34°33' E 135°25'0 0.0
2018-Feb-21 23:25N 34°33' E 135°25'0 0.0
2018-Feb-21 22:58N 34°33' E 135°25'0 0.0
2018-Feb-21 22:28N 34°33' E 135°25'0 0.0
2018-Feb-21 21:58N 34°33' E 135°25'0 0.0
2018-Feb-21 21:28N 34°33' E 135°25'0 0.0
2018-Feb-21 20:58N 34°33' E 135°25'0 0.0
2018-Feb-21 20:25N 34°33' E 135°25'0 0.0
2018-Feb-21 19:55N 34°33' E 135°25'0 0.0
2018-Feb-21 19:28N 34°33' E 135°25'0 0.0
2018-Feb-21 18:58N 34°33' E 135°25'0 0.0
2018-Feb-21 18:28N 34°33' E 135°25'0 0.0
2018-Feb-21 17:58N 34°33' E 135°25'0 0.0
2018-Feb-21 17:28N 34°33' E 135°25'0 0.0
2018-Feb-21 16:58N 34°33' E 135°25'0 0.0
2018-Feb-21 16:28N 34°33' E 135°25'0 0.0
2018-Feb-21 15:58N 34°33' E 135°25'0 0.0
2018-Feb-21 15:28N 34°33' E 135°25'0 0.0
2018-Feb-21 14:58N 34°33' E 135°25'0 0.0
2018-Feb-21 14:28N 34°33' E 135°25'0 0.0
2018-Feb-21 13:58N 34°33' E 135°25'0 0.0
2018-Feb-21 13:28N 34°33' E 135°25'0 0.0
2018-Feb-21 12:55N 34°33' E 135°25'0 0.0
2018-Feb-21 12:25N 34°33' E 135°25'0 0.0
2018-Feb-21 11:58N 34°33' E 135°25'0 0.0
2018-Feb-21 11:28N 34°33' E 135°25'0 0.0
2018-Feb-21 10:58N 34°33' E 135°25'0 0.0
2018-Feb-21 10:25N 34°33' E 135°25'0 0.0
2018-Feb-21 09:58N 34°33' E 135°25'0 0.0
2018-Feb-21 09:28N 34°33' E 135°25'0 0.0
2018-Feb-21 08:58N 34°33' E 135°25'0 0.0
2018-Feb-21 08:28N 34°33' E 135°25'0 0.0
2018-Feb-21 07:58N 34°33' E 135°25'0 0.0
2018-Feb-21 07:28N 34°33' E 135°25'0 0.0
2018-Feb-21 06:58N 34°33' E 135°25'0 0.0
2018-Feb-21 06:25N 34°33' E 135°25'0 0.0
2018-Feb-21 05:58N 34°33' E 135°25'0 0.0
2018-Feb-21 05:28N 34°33' E 135°25'0 0.0
2018-Feb-21 04:55N 34°33' E 135°25'0 0.0
2018-Feb-21 04:25N 34°33' E 135°25'0 0.0
2018-Feb-21 03:58N 34°33' E 135°25'0 0.0
2018-Feb-21 03:25N 34°33' E 135°25'0 0.0
2018-Feb-21 02:58N 34°33' E 135°25'0 0.0
2018-Feb-21 02:28N 34°33' E 135°25'0 0.0
2018-Feb-21 01:58N 34°33' E 135°25'0 0.0
2018-Feb-21 01:28N 34°33' E 135°25'0 0.0
2018-Feb-21 00:58N 34°33' E 135°25'0 0.0
2018-Feb-21 00:25N 34°33' E 135°25'0 0.0
2018-Feb-20 23:58N 34°33' E 135°25'0 0.0
2018-Feb-20 23:29N 34°33' E 135°25'2 4.1
2018-Feb-20 23:00N 34°33' E 135°23'3 6.2
2018-Feb-20 22:28N 34°33' E 135°19'0 0.0
2018-Feb-20 21:58N 34°33' E 135°19'0 0.1
2018-Feb-20 21:30N 34°33' E 135°19'5 9.4
2018-Feb-20 21:00N 34°34' E 135°14'612.7
2018-Feb-20 20:31N 34°35' E 135°06'714.5
2018-Feb-20 20:00N 34°37' E 134°57'714.9
2018-Feb-20 19:30N 34°33' E 134°49'713.5
2018-Feb-20 19:00N 34°31' E 134°42'612.9
2018-Feb-20 18:30N 34°28' E 134°35'612.8
2018-Feb-20 18:00N 34°26' E 134°27'712.7
2018-Feb-20 17:28N 34°23' E 134°19'613.0
2018-Feb-20 16:59N 34°24' E 134°12'7611.5
2018-Feb-20 10:23N 34°06' E 132°43'512.5
2018-Feb-20 10:00N 34°04' E 132°38'612.4
2018-Feb-20 09:30N 34°02' E 132°31'611.0
2018-Feb-20 08:59N 34°04' E 132°25'612.9
2018-Feb-20 08:30N 34°09' E 132°21'713.0
2018-Feb-20 08:00N 34°16' E 132°21'510.9
2018-Feb-20 07:30N 34°20' E 132°25'5 9.2
2018-Feb-20 07:00N 34°21' E 132°31'1 1.2
2018-Feb-20 06:30N 34°22' E 132°31'0 0.1
2018-Feb-20 06:00N 34°22' E 132°31'0 0.1
2018-Feb-20 05:30N 34°22' E 132°31'0 0.0
2018-Feb-20 05:00N 34°22' E 132°31'0 0.1
2018-Feb-20 04:30N 34°22' E 132°31'0 0.0
2018-Feb-20 04:00N 34°22' E 132°31'0 0.0
2018-Feb-20 03:30N 34°22' E 132°31'0 0.0
2018-Feb-20 03:00N 34°22' E 132°31'0 0.1
2018-Feb-20 02:30N 34°22' E 132°31'0 0.1
2018-Feb-20 02:00N 34°22' E 132°31'0 0.0
2018-Feb-20 01:30N 34°22' E 132°31'0 0.0
2018-Feb-20 01:00N 34°22' E 132°31'0 0.0
2018-Feb-20 00:30N 34°22' E 132°31'0 0.1
2018-Feb-20 00:00N 34°22' E 132°31'0 0.0
2018-Feb-19 23:30N 34°22' E 132°31'3 5.9
2018-Feb-19 23:00N 34°20' E 132°28'2 2.9
2018-Feb-19 22:27N 34°19' E 132°29'0 0.0
2018-Feb-19 21:57N 34°19' E 132°29'0 0.1
2018-Feb-19 21:24N 34°19' E 132°29'0 0.0
2018-Feb-19 21:00N 34°19' E 132°29'0 0.1
2018-Feb-19 20:30N 34°19' E 132°29'0 0.0
2018-Feb-19 20:00N 34°19' E 132°29'0 0.1
2018-Feb-19 19:30N 34°19' E 132°29'0 0.1
2018-Feb-19 19:00N 34°19' E 132°29'0 0.0
2018-Feb-19 18:30N 34°19' E 132°29'0 0.0
2018-Feb-19 18:00N 34°19' E 132°29'0 0.0
2018-Feb-19 17:30N 34°19' E 132°29'0 0.1
2018-Feb-19 17:00N 34°19' E 132°29'0 0.1
2018-Feb-19 16:30N 34°19' E 132°29'0 0.0
2018-Feb-19 15:57N 34°19' E 132°29'0 0.0
2018-Feb-19 15:30N 34°19' E 132°29'0 0.0
2018-Feb-19 15:00N 34°19' E 132°29'0 0.0
2018-Feb-19 14:30N 34°19' E 132°29'0 0.0
2018-Feb-19 14:00N 34°19' E 132°29'0 0.0
2018-Feb-19 13:27N 34°19' E 132°29'0 0.0
2018-Feb-19 13:00N 34°19' E 132°29'0 0.0
2018-Feb-19 12:30N 34°19' E 132°29'0 0.1
2018-Feb-19 12:00N 34°19' E 132°29'0 0.0
2018-Feb-19 11:30N 34°19' E 132°29'0 0.0
2018-Feb-19 11:00N 34°19' E 132°29'0 0.1
2018-Feb-19 10:30N 34°19' E 132°29'0 0.0
2018-Feb-19 10:00N 34°19' E 132°29'0 0.0
2018-Feb-19 09:30N 34°19' E 132°29'0 0.0
2018-Feb-19 09:00N 34°19' E 132°29'0 0.0
2018-Feb-19 08:24N 34°19' E 132°29'2 5.1
2018-Feb-19 08:00N 34°18' E 132°27'611.4
2018-Feb-19 07:30N 34°15' E 132°21'611.6
2018-Feb-19 07:00N 34°09' E 132°22'612.5
2018-Feb-19 06:30N 34°04' E 132°26'711.1
2018-Feb-19 05:50N 34°03' E 132°34'413.2
2018-Feb-19 05:30N 34°05' E 132°39'  

Dump ship's entire track history